sensor_id;sensor_type;location;lat;lon;timestamp;P1;durP1;ratioP1;P2;durP2;ratioP2
77513;SDS011;66626;48.872;9.084;2023-06-14T00:01:16;8.20;;;3.45;;
77513;SDS011;66626;48.872;9.084;2023-06-14T00:03:41;8.63;;;3.15;;
77513;SDS011;66626;48.872;9.084;2023-06-14T00:06:07;6.38;;;3.00;;
77513;SDS011;66626;48.872;9.084;2023-06-14T00:08:32;6.78;;;2.90;;
77513;SDS011;66626;48.872;9.084;2023-06-14T00:10:57;6.95;;;2.92;;
77513;SDS011;66626;48.872;9.084;2023-06-14T00:13:23;6.18;;;3.63;;
77513;SDS011;66626;48.872;9.084;2023-06-14T00:15:48;8.32;;;3.15;;
77513;SDS011;66626;48.872;9.084;2023-06-14T00:18:13;5.88;;;2.90;;
77513;SDS011;66626;48.872;9.084;2023-06-14T00:20:39;9.02;;;3.45;;
77513;SDS011;66626;48.872;9.084;2023-06-14T00:23:06;7.93;;;3.05;;
77513;SDS011;66626;48.872;9.084;2023-06-14T00:25:32;6.22;;;3.03;;
77513;SDS011;66626;48.872;9.084;2023-06-14T00:27:57;6.15;;;3.33;;
77513;SDS011;66626;48.872;9.084;2023-06-14T00:30:22;5.95;;;3.35;;
77513;SDS011;66626;48.872;9.084;2023-06-14T00:32:49;7.43;;;3.22;;
77513;SDS011;66626;48.872;9.084;2023-06-14T00:35:15;7.18;;;2.88;;
77513;SDS011;66626;48.872;9.084;2023-06-14T00:37:40;7.63;;;3.50;;
77513;SDS011;66626;48.872;9.084;2023-06-14T00:40:06;7.35;;;3.38;;
77513;SDS011;66626;48.872;9.084;2023-06-14T00:42:31;8.18;;;3.35;;
77513;SDS011;66626;48.872;9.084;2023-06-14T00:44:57;8.30;;;3.20;;
77513;SDS011;66626;48.872;9.084;2023-06-14T00:47:23;8.15;;;3.38;;
77513;SDS011;66626;48.872;9.084;2023-06-14T00:49:49;8.65;;;3.30;;
77513;SDS011;66626;48.872;9.084;2023-06-14T00:52:15;7.35;;;3.08;;
77513;SDS011;66626;48.872;9.084;2023-06-14T00:54:41;5.50;;;3.22;;
77513;SDS011;66626;48.872;9.084;2023-06-14T00:57:07;7.35;;;2.88;;
77513;SDS011;66626;48.872;9.084;2023-06-14T00:59:33;7.88;;;3.60;;
77513;SDS011;66626;48.872;9.084;2023-06-14T01:01:59;6.68;;;3.50;;
77513;SDS011;66626;48.872;9.084;2023-06-14T01:04:25;6.78;;;2.95;;
77513;SDS011;66626;48.872;9.084;2023-06-14T01:15:29;6.32;;;2.85;;
77513;SDS011;66626;48.872;9.084;2023-06-14T01:17:55;7.97;;;3.00;;
77513;SDS011;66626;48.872;9.084;2023-06-14T01:20:28;7.63;;;3.50;;
77513;SDS011;66626;48.872;9.084;2023-06-14T01:22:57;6.47;;;2.75;;
77513;SDS011;66626;48.872;9.084;2023-06-14T01:25:23;6.63;;;3.08;;
77513;SDS011;66626;48.872;9.084;2023-06-14T01:27:52;9.68;;;3.53;;
77513;SDS011;66626;48.872;9.084;2023-06-14T01:30:20;6.93;;;3.97;;
77513;SDS011;66626;48.872;9.084;2023-06-14T01:32:47;7.00;;;3.10;;
77513;SDS011;66626;48.872;9.084;2023-06-14T01:35:13;9.40;;;3.45;;
77513;SDS011;66626;48.872;9.084;2023-06-14T01:37:39;11.45;;;3.38;;
77513;SDS011;66626;48.872;9.084;2023-06-14T01:40:05;6.97;;;3.20;;
77513;SDS011;66626;48.872;9.084;2023-06-14T01:42:32;8.27;;;3.55;;
77513;SDS011;66626;48.872;9.084;2023-06-14T01:44:59;8.98;;;3.80;;
77513;SDS011;66626;48.872;9.084;2023-06-14T01:47:25;8.27;;;3.97;;
77513;SDS011;66626;48.872;9.084;2023-06-14T01:49:50;6.15;;;3.50;;
77513;SDS011;66626;48.872;9.084;2023-06-14T01:52:16;8.40;;;3.85;;
77513;SDS011;66626;48.872;9.084;2023-06-14T01:54:41;7.60;;;3.75;;
77513;SDS011;66626;48.872;9.084;2023-06-14T01:57:07;7.70;;;3.90;;
77513;SDS011;66626;48.872;9.084;2023-06-14T01:59:33;7.38;;;3.47;;
77513;SDS011;66626;48.872;9.084;2023-06-14T02:01:59;6.70;;;3.10;;
77513;SDS011;66626;48.872;9.084;2023-06-14T02:04:25;7.78;;;3.00;;
77513;SDS011;66626;48.872;9.084;2023-06-14T02:06:50;7.82;;;2.65;;
77513;SDS011;66626;48.872;9.084;2023-06-14T02:09:15;7.65;;;3.00;;
77513;SDS011;66626;48.872;9.084;2023-06-14T02:11:41;6.18;;;3.00;;
77513;SDS011;66626;48.872;9.084;2023-06-14T02:14:06;6.50;;;3.00;;
77513;SDS011;66626;48.872;9.084;2023-06-14T02:16:32;9.00;;;3.40;;
77513;SDS011;66626;48.872;9.084;2023-06-14T02:19:00;6.28;;;3.30;;
77513;SDS011;66626;48.872;9.084;2023-06-14T02:21:26;6.97;;;3.70;;
77513;SDS011;66626;48.872;9.084;2023-06-14T02:23:51;8.48;;;3.67;;
77513;SDS011;66626;48.872;9.084;2023-06-14T02:26:17;9.65;;;3.70;;
77513;SDS011;66626;48.872;9.084;2023-06-14T02:28:42;6.88;;;3.67;;
77513;SDS011;66626;48.872;9.084;2023-06-14T02:31:07;9.38;;;3.58;;
77513;SDS011;66626;48.872;9.084;2023-06-14T02:33:33;11.18;;;3.60;;
77513;SDS011;66626;48.872;9.084;2023-06-14T02:35:58;7.63;;;3.10;;
77513;SDS011;66626;48.872;9.084;2023-06-14T02:38:23;7.10;;;3.60;;
77513;SDS011;66626;48.872;9.084;2023-06-14T02:40:48;9.07;;;3.20;;
77513;SDS011;66626;48.872;9.084;2023-06-14T02:43:14;6.82;;;3.22;;
77513;SDS011;66626;48.872;9.084;2023-06-14T02:45:40;7.93;;;3.40;;
77513;SDS011;66626;48.872;9.084;2023-06-14T02:48:05;6.03;;;2.67;;
77513;SDS011;66626;48.872;9.084;2023-06-14T02:50:30;8.85;;;4.00;;
77513;SDS011;66626;48.872;9.084;2023-06-14T02:52:57;6.93;;;3.03;;
77513;SDS011;66626;48.872;9.084;2023-06-14T02:55:23;7.47;;;3.33;;
77513;SDS011;66626;48.872;9.084;2023-06-14T02:57:48;5.75;;;3.40;;
77513;SDS011;66626;48.872;9.084;2023-06-14T03:00:14;7.32;;;3.83;;
77513;SDS011;66626;48.872;9.084;2023-06-14T03:02:40;7.30;;;3.65;;
77513;SDS011;66626;48.872;9.084;2023-06-14T03:05:07;6.75;;;3.70;;
77513;SDS011;66626;48.872;9.084;2023-06-14T03:07:33;6.25;;;3.45;;
77513;SDS011;66626;48.872;9.084;2023-06-14T03:09:59;6.57;;;3.15;;
77513;SDS011;66626;48.872;9.084;2023-06-14T03:12:24;6.43;;;3.13;;
77513;SDS011;66626;48.872;9.084;2023-06-14T03:14:50;7.45;;;3.83;;
77513;SDS011;66626;48.872;9.084;2023-06-14T03:17:16;7.47;;;3.67;;
77513;SDS011;66626;48.872;9.084;2023-06-14T03:19:42;8.60;;;3.20;;
77513;SDS011;66626;48.872;9.084;2023-06-14T03:22:08;8.45;;;3.15;;
77513;SDS011;66626;48.872;9.084;2023-06-14T03:24:33;6.55;;;3.50;;
77513;SDS011;66626;48.872;9.084;2023-06-14T03:27:01;6.78;;;3.38;;
77513;SDS011;66626;48.872;9.084;2023-06-14T03:29:27;6.32;;;3.10;;
77513;SDS011;66626;48.872;9.084;2023-06-14T03:32:02;6.55;;;3.17;;
77513;SDS011;66626;48.872;9.084;2023-06-14T03:34:28;7.47;;;3.13;;
77513;SDS011;66626;48.872;9.084;2023-06-14T03:36:53;8.38;;;3.17;;
77513;SDS011;66626;48.872;9.084;2023-06-14T03:39:18;5.95;;;3.20;;
77513;SDS011;66626;48.872;9.084;2023-06-14T03:41:44;10.38;;;5.07;;
77513;SDS011;66626;48.872;9.084;2023-06-14T03:44:09;9.02;;;4.53;;
77513;SDS011;66626;48.872;9.084;2023-06-14T03:46:35;8.48;;;4.35;;
77513;SDS011;66626;48.872;9.084;2023-06-14T03:49:00;9.05;;;4.60;;
77513;SDS011;66626;48.872;9.084;2023-06-14T03:51:27;11.15;;;5.95;;
77513;SDS011;66626;48.872;9.084;2023-06-14T03:53:53;12.13;;;4.93;;
77513;SDS011;66626;48.872;9.084;2023-06-14T03:56:19;7.72;;;4.35;;
77513;SDS011;66626;48.872;9.084;2023-06-14T03:58:44;8.80;;;4.97;;
77513;SDS011;66626;48.872;9.084;2023-06-14T04:01:09;10.27;;;4.30;;
77513;SDS011;66626;48.872;9.084;2023-06-14T04:03:37;6.88;;;3.95;;
77513;SDS011;66626;48.872;9.084;2023-06-14T04:06:03;10.15;;;3.90;;
77513;SDS011;66626;48.872;9.084;2023-06-14T04:08:29;8.45;;;4.10;;
77513;SDS011;66626;48.872;9.084;2023-06-14T04:10:55;10.68;;;3.50;;
77513;SDS011;66626;48.872;9.084;2023-06-14T04:13:20;10.77;;;4.07;;
77513;SDS011;66626;48.872;9.084;2023-06-14T04:15:45;7.57;;;4.53;;
77513;SDS011;66626;48.872;9.084;2023-06-14T04:18:11;8.48;;;3.33;;
77513;SDS011;66626;48.872;9.084;2023-06-14T04:20:36;7.35;;;3.33;;
77513;SDS011;66626;48.872;9.084;2023-06-14T04:23:14;10.32;;;4.20;;
77513;SDS011;66626;48.872;9.084;2023-06-14T04:25:40;7.28;;;3.97;;
77513;SDS011;66626;48.872;9.084;2023-06-14T04:28:05;10.60;;;4.03;;
77513;SDS011;66626;48.872;9.084;2023-06-14T04:30:33;8.82;;;3.70;;
77513;SDS011;66626;48.872;9.084;2023-06-14T04:33:00;7.32;;;3.53;;
77513;SDS011;66626;48.872;9.084;2023-06-14T04:35:25;8.63;;;3.40;;
77513;SDS011;66626;48.872;9.084;2023-06-14T04:37:52;8.63;;;4.35;;
77513;SDS011;66626;48.872;9.084;2023-06-14T04:40:18;8.13;;;3.42;;
77513;SDS011;66626;48.872;9.084;2023-06-14T04:42:43;7.50;;;4.10;;
77513;SDS011;66626;48.872;9.084;2023-06-14T04:45:09;12.48;;;6.40;;
77513;SDS011;66626;48.872;9.084;2023-06-14T04:47:35;25.85;;;11.57;;
77513;SDS011;66626;48.872;9.084;2023-06-14T04:50:00;13.30;;;7.22;;
77513;SDS011;66626;48.872;9.084;2023-06-14T04:52:27;11.60;;;4.93;;
77513;SDS011;66626;48.872;9.084;2023-06-14T04:54:55;9.45;;;5.65;;
77513;SDS011;66626;48.872;9.084;2023-06-14T04:57:20;8.20;;;3.90;;
77513;SDS011;66626;48.872;9.084;2023-06-14T04:59:47;8.20;;;4.20;;
77513;SDS011;66626;48.872;9.084;2023-06-14T05:02:13;11.63;;;4.57;;
77513;SDS011;66626;48.872;9.084;2023-06-14T05:04:39;10.02;;;4.70;;
77513;SDS011;66626;48.872;9.084;2023-06-14T05:07:07;7.65;;;4.18;;
77513;SDS011;66626;48.872;9.084;2023-06-14T05:09:34;9.20;;;4.95;;
77513;SDS011;66626;48.872;9.084;2023-06-14T05:11:59;7.35;;;4.22;;
77513;SDS011;66626;48.872;9.084;2023-06-14T05:14:25;8.43;;;4.72;;
77513;SDS011;66626;48.872;9.084;2023-06-14T05:16:51;7.53;;;4.10;;
77513;SDS011;66626;48.872;9.084;2023-06-14T05:19:17;7.65;;;3.60;;
77513;SDS011;66626;48.872;9.084;2023-06-14T05:21:43;12.27;;;4.78;;
77513;SDS011;66626;48.872;9.084;2023-06-14T05:24:08;7.22;;;4.47;;
77513;SDS011;66626;48.872;9.084;2023-06-14T05:26:34;7.30;;;3.90;;
77513;SDS011;66626;48.872;9.084;2023-06-14T05:29:00;7.88;;;4.05;;
77513;SDS011;66626;48.872;9.084;2023-06-14T05:31:26;11.32;;;4.38;;
77513;SDS011;66626;48.872;9.084;2023-06-14T05:33:53;8.82;;;4.93;;
77513;SDS011;66626;48.872;9.084;2023-06-14T05:36:23;9.48;;;5.50;;
77513;SDS011;66626;48.872;9.084;2023-06-14T05:38:49;8.38;;;5.07;;
77513;SDS011;66626;48.872;9.084;2023-06-14T05:41:15;11.93;;;6.78;;
77513;SDS011;66626;48.872;9.084;2023-06-14T05:43:41;12.60;;;7.68;;
77513;SDS011;66626;48.872;9.084;2023-06-14T05:46:06;10.48;;;6.25;;
77513;SDS011;66626;48.872;9.084;2023-06-14T05:48:31;9.32;;;5.20;;
77513;SDS011;66626;48.872;9.084;2023-06-14T05:50:56;9.02;;;4.22;;
77513;SDS011;66626;48.872;9.084;2023-06-14T05:53:23;11.60;;;4.93;;
77513;SDS011;66626;48.872;9.084;2023-06-14T05:55:49;9.85;;;4.60;;
77513;SDS011;66626;48.872;9.084;2023-06-14T05:58:16;11.65;;;5.68;;
77513;SDS011;66626;48.872;9.084;2023-06-14T06:00:42;8.75;;;4.30;;
77513;SDS011;66626;48.872;9.084;2023-06-14T06:03:07;10.98;;;4.10;;
77513;SDS011;66626;48.872;9.084;2023-06-14T06:05:34;9.43;;;3.92;;
77513;SDS011;66626;48.872;9.084;2023-06-14T06:07:59;7.53;;;4.45;;
77513;SDS011;66626;48.872;9.084;2023-06-14T06:10:25;10.23;;;4.68;;
77513;SDS011;66626;48.872;9.084;2023-06-14T06:12:50;10.05;;;4.80;;
77513;SDS011;66626;48.872;9.084;2023-06-14T06:15:19;6.80;;;4.25;;
77513;SDS011;66626;48.872;9.084;2023-06-14T06:17:44;7.20;;;4.43;;
77513;SDS011;66626;48.872;9.084;2023-06-14T06:20:10;7.88;;;3.92;;
77513;SDS011;66626;48.872;9.084;2023-06-14T06:22:36;9.63;;;4.50;;
77513;SDS011;66626;48.872;9.084;2023-06-14T06:25:02;9.57;;;4.82;;
77513;SDS011;66626;48.872;9.084;2023-06-14T06:27:27;7.70;;;4.68;;
77513;SDS011;66626;48.872;9.084;2023-06-14T06:29:53;8.95;;;3.88;;
77513;SDS011;66626;48.872;9.084;2023-06-14T06:32:18;8.75;;;4.55;;
77513;SDS011;66626;48.872;9.084;2023-06-14T06:34:43;7.85;;;4.13;;
77513;SDS011;66626;48.872;9.084;2023-06-14T06:37:09;8.57;;;4.80;;
77513;SDS011;66626;48.872;9.084;2023-06-14T06:39:34;8.88;;;3.53;;
77513;SDS011;66626;48.872;9.084;2023-06-14T06:42:00;8.02;;;4.75;;
77513;SDS011;66626;48.872;9.084;2023-06-14T06:44:25;10.77;;;4.43;;
77513;SDS011;66626;48.872;9.084;2023-06-14T06:46:50;9.25;;;4.38;;
77513;SDS011;66626;48.872;9.084;2023-06-14T06:49:16;8.13;;;4.05;;
77513;SDS011;66626;48.872;9.084;2023-06-14T06:51:41;9.50;;;4.47;;
77513;SDS011;66626;48.872;9.084;2023-06-14T06:54:07;8.20;;;4.57;;
77513;SDS011;66626;48.872;9.084;2023-06-14T06:56:33;10.70;;;4.28;;
77513;SDS011;66626;48.872;9.084;2023-06-14T06:58:59;9.52;;;4.53;;
77513;SDS011;66626;48.872;9.084;2023-06-14T07:01:24;10.27;;;5.47;;
77513;SDS011;66626;48.872;9.084;2023-06-14T07:03:51;14.73;;;7.75;;
77513;SDS011;66626;48.872;9.084;2023-06-14T07:06:16;14.45;;;6.97;;
77513;SDS011;66626;48.872;9.084;2023-06-14T07:08:43;7.65;;;4.30;;
77513;SDS011;66626;48.872;9.084;2023-06-14T07:11:09;7.00;;;3.83;;
77513;SDS011;66626;48.872;9.084;2023-06-14T07:13:34;8.98;;;4.35;;
77513;SDS011;66626;48.872;9.084;2023-06-14T07:16:00;9.70;;;4.43;;
77513;SDS011;66626;48.872;9.084;2023-06-14T07:18:25;5.85;;;3.95;;
77513;SDS011;66626;48.872;9.084;2023-06-14T07:20:51;7.00;;;3.97;;
77513;SDS011;66626;48.872;9.084;2023-06-14T07:23:17;9.48;;;4.30;;
77513;SDS011;66626;48.872;9.084;2023-06-14T07:25:42;7.85;;;3.72;;
77513;SDS011;66626;48.872;9.084;2023-06-14T07:28:07;9.10;;;3.90;;
77513;SDS011;66626;48.872;9.084;2023-06-14T07:30:33;8.85;;;4.55;;
77513;SDS011;66626;48.872;9.084;2023-06-14T07:32:58;8.30;;;4.15;;
77513;SDS011;66626;48.872;9.084;2023-06-14T07:35:23;8.98;;;4.50;;
77513;SDS011;66626;48.872;9.084;2023-06-14T07:37:49;9.60;;;4.13;;
77513;SDS011;66626;48.872;9.084;2023-06-14T07:40:14;9.90;;;4.18;;
77513;SDS011;66626;48.872;9.084;2023-06-14T07:42:40;9.05;;;4.30;;
77513;SDS011;66626;48.872;9.084;2023-06-14T07:45:05;8.98;;;4.60;;
77513;SDS011;66626;48.872;9.084;2023-06-14T07:47:31;9.88;;;3.63;;
77513;SDS011;66626;48.872;9.084;2023-06-14T07:49:57;7.18;;;4.55;;
77513;SDS011;66626;48.872;9.084;2023-06-14T07:52:22;8.52;;;4.10;;
77513;SDS011;66626;48.872;9.084;2023-06-14T07:54:47;8.05;;;4.00;;
77513;SDS011;66626;48.872;9.084;2023-06-14T07:57:13;7.45;;;3.95;;
77513;SDS011;66626;48.872;9.084;2023-06-14T07:59:38;7.55;;;3.78;;
77513;SDS011;66626;48.872;9.084;2023-06-14T08:02:04;7.78;;;4.70;;
77513;SDS011;66626;48.872;9.084;2023-06-14T08:04:29;6.50;;;3.70;;
77513;SDS011;66626;48.872;9.084;2023-06-14T08:06:54;8.73;;;3.88;;
77513;SDS011;66626;48.872;9.084;2023-06-14T08:09:20;8.93;;;3.90;;
77513;SDS011;66626;48.872;9.084;2023-06-14T08:11:45;6.03;;;3.63;;
77513;SDS011;66626;48.872;9.084;2023-06-14T08:14:10;6.10;;;3.85;;
77513;SDS011;66626;48.872;9.084;2023-06-14T08:16:36;9.23;;;4.32;;
77513;SDS011;66626;48.872;9.084;2023-06-14T08:19:02;8.10;;;4.00;;
77513;SDS011;66626;48.872;9.084;2023-06-14T08:21:27;11.48;;;4.97;;
77513;SDS011;66626;48.872;9.084;2023-06-14T08:23:54;8.25;;;3.67;;
77513;SDS011;66626;48.872;9.084;2023-06-14T08:26:19;10.00;;;4.40;;
77513;SDS011;66626;48.872;9.084;2023-06-14T08:28:45;7.20;;;3.95;;
77513;SDS011;66626;48.872;9.084;2023-06-14T08:31:11;9.60;;;4.63;;
77513;SDS011;66626;48.872;9.084;2023-06-14T08:33:37;7.00;;;3.65;;
77513;SDS011;66626;48.872;9.084;2023-06-14T08:36:04;7.55;;;3.90;;
77513;SDS011;66626;48.872;9.084;2023-06-14T08:38:29;6.45;;;4.40;;
77513;SDS011;66626;48.872;9.084;2023-06-14T08:40:56;8.63;;;3.95;;
77513;SDS011;66626;48.872;9.084;2023-06-14T08:43:23;8.48;;;4.45;;
77513;SDS011;66626;48.872;9.084;2023-06-14T08:45:48;6.60;;;3.95;;
77513;SDS011;66626;48.872;9.084;2023-06-14T08:48:19;8.20;;;4.20;;
77513;SDS011;66626;48.872;9.084;2023-06-14T08:50:45;7.00;;;3.60;;
77513;SDS011;66626;48.872;9.084;2023-06-14T08:53:12;7.53;;;4.20;;
77513;SDS011;66626;48.872;9.084;2023-06-14T08:55:44;7.47;;;3.90;;
77513;SDS011;66626;48.872;9.084;2023-06-14T08:58:10;6.90;;;3.95;;
77513;SDS011;66626;48.872;9.084;2023-06-14T09:00:39;6.63;;;3.47;;
77513;SDS011;66626;48.872;9.084;2023-06-14T09:03:06;8.50;;;3.95;;
77513;SDS011;66626;48.872;9.084;2023-06-14T09:05:38;6.25;;;3.65;;
77513;SDS011;66626;48.872;9.084;2023-06-14T09:08:03;11.23;;;6.60;;
77513;SDS011;66626;48.872;9.084;2023-06-14T09:10:30;9.23;;;5.82;;
77513;SDS011;66626;48.872;9.084;2023-06-14T09:12:58;11.90;;;5.20;;
77513;SDS011;66626;48.872;9.084;2023-06-14T09:15:25;7.80;;;3.85;;
77513;SDS011;66626;48.872;9.084;2023-06-14T09:17:50;7.28;;;3.97;;
77513;SDS011;66626;48.872;9.084;2023-06-14T09:20:16;7.18;;;4.07;;
77513;SDS011;66626;48.872;9.084;2023-06-14T09:22:44;6.10;;;3.75;;
77513;SDS011;66626;48.872;9.084;2023-06-14T09:25:10;7.63;;;3.75;;
77513;SDS011;66626;48.872;9.084;2023-06-14T09:27:38;6.15;;;4.05;;
77513;SDS011;66626;48.872;9.084;2023-06-14T09:30:05;7.75;;;3.97;;
77513;SDS011;66626;48.872;9.084;2023-06-14T09:32:37;9.05;;;3.65;;
77513;SDS011;66626;48.872;9.084;2023-06-14T09:35:03;11.50;;;4.32;;
77513;SDS011;66626;48.872;9.084;2023-06-14T09:37:30;6.28;;;3.50;;
77513;SDS011;66626;48.872;9.084;2023-06-14T09:39:57;10.07;;;3.85;;
77513;SDS011;66626;48.872;9.084;2023-06-14T09:42:23;10.50;;;4.20;;
77513;SDS011;66626;48.872;9.084;2023-06-14T09:44:51;9.98;;;4.55;;
77513;SDS011;66626;48.872;9.084;2023-06-14T09:47:17;6.68;;;3.78;;
77513;SDS011;66626;48.872;9.084;2023-06-14T09:49:42;5.63;;;3.10;;
77513;SDS011;66626;48.872;9.084;2023-06-14T09:52:15;6.38;;;3.80;;
77513;SDS011;66626;48.872;9.084;2023-06-14T09:54:44;5.47;;;3.50;;
77513;SDS011;66626;48.872;9.084;2023-06-14T09:57:12;5.25;;;3.28;;
77513;SDS011;66626;48.872;9.084;2023-06-14T09:59:40;7.05;;;3.05;;
77513;SDS011;66626;48.872;9.084;2023-06-14T10:02:08;7.70;;;4.00;;
77513;SDS011;66626;48.872;9.084;2023-06-14T10:04:41;15.32;;;3.58;;
77513;SDS011;66626;48.872;9.084;2023-06-14T10:07:12;6.53;;;3.35;;
77513;SDS011;66626;48.872;9.084;2023-06-14T10:09:39;10.00;;;3.22;;
77513;SDS011;66626;48.872;9.084;2023-06-14T10:12:09;7.07;;;3.13;;
77513;SDS011;66626;48.872;9.084;2023-06-14T10:14:35;9.73;;;5.57;;
77513;SDS011;66626;48.872;9.084;2023-06-14T10:17:05;6.30;;;3.38;;
77513;SDS011;66626;48.872;9.084;2023-06-14T10:19:34;8.80;;;3.40;;
77513;SDS011;66626;48.872;9.084;2023-06-14T10:22:02;5.97;;;3.42;;
77513;SDS011;66626;48.872;9.084;2023-06-14T10:24:33;10.40;;;4.18;;
77513;SDS011;66626;48.872;9.084;2023-06-14T10:27:06;7.78;;;2.88;;
77513;SDS011;66626;48.872;9.084;2023-06-14T10:29:35;5.90;;;3.08;;
77513;SDS011;66626;48.872;9.084;2023-06-14T10:32:24;7.57;;;3.72;;
77513;SDS011;66626;48.872;9.084;2023-06-14T10:35:08;10.77;;;3.50;;
77513;SDS011;66626;48.872;9.084;2023-06-14T10:37:34;7.53;;;3.42;;
77513;SDS011;66626;48.872;9.084;2023-06-14T10:40:00;6.75;;;3.13;;
77513;SDS011;66626;48.872;9.084;2023-06-14T10:42:31;5.53;;;2.92;;
77513;SDS011;66626;48.872;9.084;2023-06-14T10:44:57;6.22;;;3.42;;
77513;SDS011;66626;48.872;9.084;2023-06-14T10:47:26;5.13;;;2.38;;
77513;SDS011;66626;48.872;9.084;2023-06-14T10:50:09;6.40;;;3.05;;
77513;SDS011;66626;48.872;9.084;2023-06-14T10:52:39;6.63;;;2.90;;
77513;SDS011;66626;48.872;9.084;2023-06-14T10:55:10;7.00;;;3.00;;
77513;SDS011;66626;48.872;9.084;2023-06-14T10:57:37;5.57;;;3.10;;
77513;SDS011;66626;48.872;9.084;2023-06-14T11:00:05;6.65;;;2.85;;
77513;SDS011;66626;48.872;9.084;2023-06-14T11:05:25;8.57;;;2.90;;
77513;SDS011;66626;48.872;9.084;2023-06-14T11:07:58;6.35;;;2.72;;
77513;SDS011;66626;48.872;9.084;2023-06-14T11:10:49;6.35;;;2.80;;
77513;SDS011;66626;48.872;9.084;2023-06-14T11:13:18;11.10;;;3.70;;
77513;SDS011;66626;48.872;9.084;2023-06-14T11:15:44;8.00;;;2.50;;
77513;SDS011;66626;48.872;9.084;2023-06-14T11:18:10;7.28;;;2.70;;
77513;SDS011;66626;48.872;9.084;2023-06-14T11:20:37;8.07;;;3.75;;
77513;SDS011;66626;48.872;9.084;2023-06-14T11:23:03;7.03;;;3.63;;
77513;SDS011;66626;48.872;9.084;2023-06-14T11:25:28;6.07;;;3.05;;
77513;SDS011;66626;48.872;9.084;2023-06-14T11:27:54;6.95;;;3.15;;
77513;SDS011;66626;48.872;9.084;2023-06-14T11:30:20;5.95;;;3.00;;
77513;SDS011;66626;48.872;9.084;2023-06-14T11:32:46;8.45;;;3.03;;
77513;SDS011;66626;48.872;9.084;2023-06-14T11:35:12;6.75;;;3.40;;
77513;SDS011;66626;48.872;9.084;2023-06-14T11:37:38;5.65;;;2.83;;
77513;SDS011;66626;48.872;9.084;2023-06-14T11:40:06;7.32;;;3.20;;
77513;SDS011;66626;48.872;9.084;2023-06-14T11:42:36;8.18;;;3.15;;
77513;SDS011;66626;48.872;9.084;2023-06-14T11:45:03;4.60;;;2.70;;
77513;SDS011;66626;48.872;9.084;2023-06-14T11:47:33;12.30;;;3.28;;
77513;SDS011;66626;48.872;9.084;2023-06-14T11:49:59;6.90;;;3.60;;
77513;SDS011;66626;48.872;9.084;2023-06-14T11:52:25;6.38;;;3.15;;
77513;SDS011;66626;48.872;9.084;2023-06-14T11:54:51;5.40;;;2.70;;
77513;SDS011;66626;48.872;9.084;2023-06-14T11:57:17;6.63;;;2.85;;
77513;SDS011;66626;48.872;9.084;2023-06-14T11:59:43;6.60;;;2.75;;
77513;SDS011;66626;48.872;9.084;2023-06-14T12:02:09;6.70;;;3.15;;
77513;SDS011;66626;48.872;9.084;2023-06-14T12:04:35;8.05;;;3.13;;
77513;SDS011;66626;48.872;9.084;2023-06-14T12:07:13;5.57;;;2.47;;
77513;SDS011;66626;48.872;9.084;2023-06-14T12:10:04;7.78;;;2.67;;
77513;SDS011;66626;48.872;9.084;2023-06-14T12:12:31;9.68;;;3.78;;
77513;SDS011;66626;48.872;9.084;2023-06-14T12:15:03;13.63;;;4.70;;
77513;SDS011;66626;48.872;9.084;2023-06-14T12:17:33;5.68;;;3.05;;
77513;SDS011;66626;48.872;9.084;2023-06-14T12:20:04;6.72;;;3.38;;
77513;SDS011;66626;48.872;9.084;2023-06-14T12:22:32;6.15;;;2.83;;
77513;SDS011;66626;48.872;9.084;2023-06-14T12:24:58;6.38;;;3.08;;
77513;SDS011;66626;48.872;9.084;2023-06-14T12:27:23;5.70;;;2.88;;
77513;SDS011;66626;48.872;9.084;2023-06-14T12:30:00;5.50;;;2.67;;
77513;SDS011;66626;48.872;9.084;2023-06-14T12:32:26;6.53;;;2.92;;
77513;SDS011;66626;48.872;9.084;2023-06-14T12:34:52;5.50;;;3.08;;
77513;SDS011;66626;48.872;9.084;2023-06-14T12:37:17;7.63;;;3.05;;
77513;SDS011;66626;48.872;9.084;2023-06-14T12:39:42;5.90;;;2.92;;
77513;SDS011;66626;48.872;9.084;2023-06-14T12:42:07;5.53;;;2.90;;
77513;SDS011;66626;48.872;9.084;2023-06-14T12:44:33;5.70;;;2.53;;
77513;SDS011;66626;48.872;9.084;2023-06-14T12:47:00;7.05;;;2.70;;
77513;SDS011;66626;48.872;9.084;2023-06-14T12:49:26;7.25;;;2.95;;
77513;SDS011;66626;48.872;9.084;2023-06-14T12:51:51;6.25;;;3.20;;
77513;SDS011;66626;48.872;9.084;2023-06-14T12:54:17;5.40;;;3.30;;
77513;SDS011;66626;48.872;9.084;2023-06-14T12:56:42;7.68;;;3.28;;
77513;SDS011;66626;48.872;9.084;2023-06-14T12:59:09;6.82;;;3.20;;
77513;SDS011;66626;48.872;9.084;2023-06-14T13:01:37;7.53;;;3.13;;
77513;SDS011;66626;48.872;9.084;2023-06-14T13:04:03;6.78;;;2.63;;
77513;SDS011;66626;48.872;9.084;2023-06-14T13:06:28;5.13;;;2.83;;
77513;SDS011;66626;48.872;9.084;2023-06-14T13:08:56;6.57;;;2.80;;
77513;SDS011;66626;48.872;9.084;2023-06-14T13:11:22;6.32;;;3.33;;
77513;SDS011;66626;48.872;9.084;2023-06-14T13:13:48;7.10;;;2.60;;
77513;SDS011;66626;48.872;9.084;2023-06-14T13:16:13;7.88;;;3.08;;
77513;SDS011;66626;48.872;9.084;2023-06-14T13:18:39;5.43;;;2.95;;
77513;SDS011;66626;48.872;9.084;2023-06-14T13:21:04;5.38;;;3.03;;
77513;SDS011;66626;48.872;9.084;2023-06-14T13:23:30;8.23;;;3.17;;
77513;SDS011;66626;48.872;9.084;2023-06-14T13:25:55;6.70;;;3.10;;
77513;SDS011;66626;48.872;9.084;2023-06-14T13:28:20;5.72;;;2.90;;
77513;SDS011;66626;48.872;9.084;2023-06-14T13:30:46;7.90;;;2.50;;
77513;SDS011;66626;48.872;9.084;2023-06-14T13:33:11;5.80;;;2.83;;
77513;SDS011;66626;48.872;9.084;2023-06-14T13:35:36;7.00;;;2.85;;
77513;SDS011;66626;48.872;9.084;2023-06-14T13:38:02;5.03;;;2.67;;
77513;SDS011;66626;48.872;9.084;2023-06-14T13:40:27;6.68;;;2.92;;
77513;SDS011;66626;48.872;9.084;2023-06-14T13:42:52;5.18;;;2.92;;
77513;SDS011;66626;48.872;9.084;2023-06-14T13:45:18;7.05;;;3.10;;
77513;SDS011;66626;48.872;9.084;2023-06-14T13:47:43;10.00;;;3.25;;
77513;SDS011;66626;48.872;9.084;2023-06-14T13:50:08;6.82;;;3.08;;
77513;SDS011;66626;48.872;9.084;2023-06-14T13:52:34;7.07;;;3.92;;
77513;SDS011;66626;48.872;9.084;2023-06-14T13:55:00;5.53;;;3.25;;
77513;SDS011;66626;48.872;9.084;2023-06-14T13:57:25;6.03;;;2.95;;
77513;SDS011;66626;48.872;9.084;2023-06-14T13:59:50;5.60;;;3.10;;
77513;SDS011;66626;48.872;9.084;2023-06-14T14:02:18;9.35;;;4.72;;
77513;SDS011;66626;48.872;9.084;2023-06-14T14:04:43;6.82;;;3.65;;
77513;SDS011;66626;48.872;9.084;2023-06-14T14:07:09;9.98;;;4.82;;
77513;SDS011;66626;48.872;9.084;2023-06-14T14:09:34;5.47;;;3.13;;
77513;SDS011;66626;48.872;9.084;2023-06-14T14:12:00;7.20;;;3.85;;
77513;SDS011;66626;48.872;9.084;2023-06-14T14:14:27;6.57;;;3.78;;
77513;SDS011;66626;48.872;9.084;2023-06-14T14:16:52;7.30;;;3.58;;
77513;SDS011;66626;48.872;9.084;2023-06-14T14:19:19;8.77;;;3.95;;
77513;SDS011;66626;48.872;9.084;2023-06-14T14:21:45;6.47;;;3.97;;
77513;SDS011;66626;48.872;9.084;2023-06-14T14:24:10;6.22;;;3.20;;
77513;SDS011;66626;48.872;9.084;2023-06-14T14:26:36;6.85;;;4.25;;
77513;SDS011;66626;48.872;9.084;2023-06-14T14:29:01;7.15;;;2.90;;
77513;SDS011;66626;48.872;9.084;2023-06-14T14:31:27;8.60;;;3.40;;
77513;SDS011;66626;48.872;9.084;2023-06-14T14:33:53;8.95;;;3.88;;
77513;SDS011;66626;48.872;9.084;2023-06-14T14:36:18;8.07;;;3.65;;
77513;SDS011;66626;48.872;9.084;2023-06-14T14:38:44;4.60;;;2.70;;
77513;SDS011;66626;48.872;9.084;2023-06-14T14:41:10;7.60;;;3.30;;
77513;SDS011;66626;48.872;9.084;2023-06-14T14:43:35;9.00;;;3.90;;
77513;SDS011;66626;48.872;9.084;2023-06-14T14:46:00;6.93;;;3.35;;
77513;SDS011;66626;48.872;9.084;2023-06-14T14:48:26;6.35;;;2.78;;
77513;SDS011;66626;48.872;9.084;2023-06-14T14:50:51;6.43;;;3.10;;
77513;SDS011;66626;48.872;9.084;2023-06-14T14:53:16;6.75;;;4.00;;